Time;durP1;ratioP1;P1;durP2;ratioP2;P2;SDS_P1;SDS_P2;PMS_P1;PMS_P2;Temp;Humidity;BMP_temperature;BMP_pressure;BME280_temperature;BME280_humidity;BME280_pressure;Samples;Min_cycle;Max_cycle;Signal;HPM_P1;HPM_P2
2021/11/08 00:00:40;;;;;;;30.88;6.95;;;;;;;;;;5034078;28;20120;-68
2021/11/08 00:03:07;;;;;;;25.23;7.75;;;;;;;;;;5052519;28;20063;-65
2021/11/08 00:05:40;;;;;;;24.70;6.60;;;;;;;;;;5052456;28;20071;-67
2021/11/08 00:08:07;;;;;;;31.17;8.55;;;;;;;;;;5034126;28;20099;-67
2021/11/08 00:10:38;;;;;;;34.63;10.52;;;;;;;;;;5052060;28;20535;-67
2021/11/08 00:13:15;;;;;;;23.60;6.95;;;;;;;;;;5051903;28;20025;-68
2021/11/08 00:16:03;;;;;;;23.92;6.72;;;;;;;;;;5033983;28;20088;-67
2021/11/08 00:21:28;;;;;;;25.93;8.30;;;;;;;;;;5052105;28;20124;-67
2021/11/08 00:23:54;;;;;;;24.85;7.20;;;;;;;;;;5033622;28;20029;-67
2021/11/08 00:26:26;;;;;;;27.48;7.00;;;;;;;;;;5033998;28;20426;-68
2021/11/08 00:28:53;;;;;;;25.83;8.40;;;;;;;;;;5051663;28;20052;-67
2021/11/08 00:31:21;;;;;;;23.17;6.78;;;;;;;;;;5033867;28;20426;-67
2021/11/08 00:33:51;;;;;;;29.27;7.07;;;;;;;;;;5051623;28;20480;-67
2021/11/08 00:36:17;;;;;;;23.38;5.43;;;;;;;;;;5051633;28;20024;-67
2021/11/08 00:38:46;;;;;;;20.75;6.25;;;;;;;;;;5051667;28;20150;-66
2021/11/08 00:41:21;;;;;;;26.17;7.47;;;;;;;;;;5051647;28;20021;-67
2021/11/08 00:43:53;;;;;;;21.13;6.90;;;;;;;;;;5051446;28;20462;-67
2021/11/08 00:46:19;;;;;;;24.42;7.35;;;;;;;;;;5051463;28;20032;-67
2021/11/08 00:48:45;;;;;;;26.55;7.82;;;;;;;;;;5051478;28;20103;-68
2021/11/08 00:51:11;;;;;;;27.52;7.53;;;;;;;;;;5051380;28;20021;-67
2021/11/08 00:53:37;;;;;;;24.38;7.68;;;;;;;;;;5033370;28;20043;-66
2021/11/08 00:56:09;;;;;;;23.70;7.22;;;;;;;;;;5050923;28;20040;-67
2021/11/08 00:58:38;;;;;;;24.73;7.75;;;;;;;;;;5033528;28;20031;-68
2021/11/08 01:01:07;;;;;;;33.22;8.98;;;;;;;;;;5033309;28;20025;-66
2021/11/08 01:03:35;;;;;;;27.58;6.97;;;;;;;;;;5050976;28;20028;-67
2021/11/08 01:06:01;;;;;;;28.48;7.55;;;;;;;;;;5051215;28;20421;-67
2021/11/08 01:08:27;;;;;;;24.10;6.82;;;;;;;;;;5034203;28;20378;-68
2021/11/08 01:10:54;;;;;;;27.45;8.00;;;;;;;;;;5053126;28;20108;-68
2021/11/08 01:13:20;;;;;;;29.83;8.10;;;;;;;;;;5037701;28;20025;-67
2021/11/08 01:15:46;;;;;;;25.55;8.23;;;;;;;;;;5037806;28;20061;-67
2021/11/08 01:18:12;;;;;;;32.22;8.70;;;;;;;;;;5055885;28;20052;-67
2021/11/08 01:20:45;;;;;;;21.70;6.03;;;;;;;;;;5037190;28;20029;-67
2021/11/08 01:23:13;;;;;;;29.85;8.10;;;;;;;;;;5055072;28;20028;-66
2021/11/08 01:25:40;;;;;;;30.30;7.55;;;;;;;;;;5055478;28;20021;-68
2021/11/08 01:28:07;;;;;;;31.65;7.72;;;;;;;;;;5037344;28;20025;-67
2021/11/08 01:30:33;;;;;;;21.08;6.78;;;;;;;;;;5055389;28;20027;-67
2021/11/08 01:33:14;;;;;;;24.55;6.80;;;;;;;;;;5055252;28;20025;-68
2021/11/08 01:35:43;;;;;;;28.23;7.63;;;;;;;;;;5054822;28;20021;-67
2021/11/08 01:38:12;;;;;;;22.75;6.90;;;;;;;;;;5054920;28;20045;-67
2021/11/08 01:40:39;;;;;;;23.95;6.85;;;;;;;;;;5054807;28;20033;-67
2021/11/08 01:43:07;;;;;;;26.48;7.10;;;;;;;;;;5054537;28;20025;-66
2021/11/08 01:45:33;;;;;;;26.38;8.00;;;;;;;;;;5036695;28;20021;-67
2021/11/08 01:47:59;;;;;;;27.42;8.43;;;;;;;;;;5036308;28;20469;-66
2021/11/08 01:50:26;;;;;;;23.98;7.13;;;;;;;;;;5036516;28;20492;-67
2021/11/08 01:52:56;;;;;;;26.45;7.28;;;;;;;;;;5054518;28;20057;-66
2021/11/08 01:55:37;;;;;;;25.38;8.30;;;;;;;;;;5054330;28;20100;-68
2021/11/08 01:58:16;;;;;;;25.52;7.85;;;;;;;;;;5054463;28;20186;-67
2021/11/08 02:00:52;;;;;;;23.60;7.03;;;;;;;;;;5036383;28;20056;-67
2021/11/08 02:06:24;;;;;;;23.98;6.38;;;;;;;;;;5040217;28;20029;-67
2021/11/08 02:08:53;;;;;;;29.52;7.32;;;;;;;;;;5054236;28;20492;-68
2021/11/08 02:11:21;;;;;;;26.33;6.55;;;;;;;;;;5035916;28;20099;-67
2021/11/08 02:14:06;;;;;;;26.23;6.53;;;;;;;;;;5053993;28;20390;-67
2021/11/08 02:16:32;;;;;;;24.77;7.15;;;;;;;;;;5054017;28;20025;-67
2021/11/08 02:18:59;;;;;;;26.75;7.63;;;;;;;;;;5054145;28;20025;-67
2021/11/08 02:21:25;;;;;;;24.45;7.03;;;;;;;;;;5035799;28;20029;-67
2021/11/08 02:23:55;;;;;;;27.90;7.53;;;;;;;;;;5052865;28;20067;-67
2021/11/08 02:26:21;;;;;;;27.15;6.07;;;;;;;;;;5036333;28;20021;-67
2021/11/08 02:28:50;;;;;;;25.70;8.18;;;;;;;;;;5035797;28;20438;-67
2021/11/08 02:31:18;;;;;;;30.50;7.05;;;;;;;;;;5035702;28;20108;-67
2021/11/08 02:33:49;;;;;;;29.38;8.98;;;;;;;;;;5035838;28;20067;-67
2021/11/08 02:36:16;;;;;;;25.85;6.53;;;;;;;;;;5054013;28;20029;-67
2021/11/08 02:38:47;;;;;;;26.02;7.38;;;;;;;;;;5035318;28;20039;-67
2021/11/08 02:41:14;;;;;;;27.50;8.25;;;;;;;;;;5053785;28;20035;-67
2021/11/08 02:43:40;;;;;;;24.55;9.13;;;;;;;;;;5053263;28;20052;-67
2021/11/08 02:46:16;;;;;;;25.52;7.07;;;;;;;;;;5053570;28;20021;-67
2021/11/08 02:48:43;;;;;;;29.30;8.25;;;;;;;;;;5035467;28;20017;-68
2021/11/08 02:51:28;;;;;;;22.90;6.20;;;;;;;;;;5035319;28;20071;-68
2021/11/08 02:54:00;;;;;;;29.15;7.22;;;;;;;;;;5053199;28;20109;-68
2021/11/08 02:56:26;;;;;;;23.85;7.20;;;;;;;;;;5053671;28;20330;-66
2021/11/08 02:58:53;;;;;;;24.27;6.88;;;;;;;;;;5053303;28;20036;-67
2021/11/08 03:04:15;;;;;;;27.38;7.57;;;;;;;;;;5042493;28;20063;-67
2021/11/08 03:06:54;;;;;;;;;;;;;;;;;;;;;
2021/11/08 03:09:35;;;;;;;24.90;7.20;;;;;;;;;;5052931;28;20500;-67
2021/11/08 03:12:24;;;;;;;26.77;8.18;;;;;;;;;;5052967;28;20059;-66
2021/11/08 03:17:39;;;;;;;24.85;8.45;;;;;;;;;;5052989;28;20080;-65
2021/11/08 03:20:09;;;;;;;24.85;6.40;;;;;;;;;;5035089;28;20045;-67
2021/11/08 03:22:59;;;;;;;23.65;6.63;;;;;;;;;;5052530;28;20028;-67
2021/11/08 03:25:44;;;;;;;24.98;8.23;;;;;;;;;;5034569;28;20020;-67
2021/11/08 03:28:21;;;;;;;28.27;8.05;;;;;;;;;;5052579;28;20025;-67
2021/11/08 03:31:09;;;;;;;;;;;;;;;;;;;;;
2021/11/08 03:34:13;;;;;;;21.95;8.35;;;;;;;;;;5052318;28;20111;-68
2021/11/08 03:36:41;;;;;;;22.50;7.22;;;;;;;;;;5034453;28;20056;-67
2021/11/08 03:39:27;;;;;;;30.45;7.82;;;;;;;;;;5052222;28;20056;-67
2021/11/08 03:41:53;;;;;;;27.15;6.85;;;;;;;;;;5052217;28;20378;-66
2021/11/08 03:44:19;;;;;;;23.10;7.25;;;;;;;;;;5034261;28;20025;-67
2021/11/08 03:46:45;;;;;;;27.80;8.18;;;;;;;;;;5052310;28;20021;-66
2021/11/08 03:49:19;;;;;;;30.73;7.55;;;;;;;;;;5034541;28;20021;-66
2021/11/08 03:51:51;;;;;;;26.55;7.57;;;;;;;;;;5034075;28;20045;-67
2021/11/08 03:54:17;;;;;;;35.88;10.07;;;;;;;;;;5051809;28;20036;-67
2021/11/08 03:59:54;;;;;;;28.23;9.57;;;;;;;;;;5051732;28;20032;-67
2021/11/08 04:02:21;;;;;;;30.00;7.60;;;;;;;;;;5052239;28;20495;-67
2021/11/08 04:05:06;;;;;;;;;;;;;;;;;;;;;
2021/11/08 04:07:38;;;;;;;25.45;8.15;;;;;;;;;;5052074;28;20029;-67
2021/11/08 04:10:06;;;;;;;27.65;8.70;;;;;;;;;;5052123;28;20026;-67
2021/11/08 04:12:34;;;;;;;28.40;9.20;;;;;;;;;;5052041;28;20036;-67
2021/11/08 04:15:01;;;;;;;26.67;9.18;;;;;;;;;;5051657;28;20029;-67
2021/11/08 04:17:41;;;;;;;29.63;9.93;;;;;;;;;;5034137;28;20461;-66
2021/11/08 04:20:07;;;;;;;28.98;10.48;;;;;;;;;;5051838;28;20021;-67
2021/11/08 04:22:33;;;;;;;28.55;10.38;;;;;;;;;;5051576;28;20021;-67
2021/11/08 04:25:00;;;;;;;24.42;9.07;;;;;;;;;;5051459;28;20067;-68
2021/11/08 04:27:26;;;;;;;41.88;10.13;;;;;;;;;;5051440;28;20392;-67
2021/11/08 04:29:59;;;;;;;29.77;9.70;;;;;;;;;;5033792;28;20024;-67
2021/11/08 04:32:30;;;;;;;27.65;9.55;;;;;;;;;;5033511;28;20036;-66
2021/11/08 04:35:12;;;;;;;27.20;10.45;;;;;;;;;;5033372;28;20124;-67
2021/11/08 05:31:47;;;;;;;33.97;12.57;;;;;;;;;;4970116;28;20511;-67
2021/11/08 05:34:14;;;;;;;30.63;10.82;;;;;;;;;;5008152;28;20029;-67
2021/11/08 05:36:40;;;;;;;33.85;13.18;;;;;;;;;;5033133;28;20029;-67
2021/11/08 05:39:06;;;;;;;37.60;14.88;;;;;;;;;;5033083;28;20022;-67
2021/11/08 05:41:38;;;;;;;36.42;14.40;;;;;;;;;;5032746;28;20043;-65
2021/11/08 05:44:04;;;;;;;28.58;12.38;;;;;;;;;;5032544;28;20025;-66
2021/11/08 05:46:31;;;;;;;33.38;13.05;;;;;;;;;;5050711;28;20440;-66
2021/11/08 05:48:57;;;;;;;34.33;14.30;;;;;;;;;;5050945;28;20397;-66
2021/11/08 05:51:29;;;;;;;42.33;14.70;;;;;;;;;;5087056;23;20102;-65
2021/11/08 05:54:07;;;;;;;39.25;16.00;;;;;;;;;;5049112;28;20037;-65
2021/11/08 05:57:41;;;;;;;43.97;14.95;;;;;;;;;;5049766;28;20056;-66
2021/11/08 06:51:00;;;;;;;37.30;15.25;;;;;;;;;;5032684;28;20133;-66
2021/11/08 06:53:30;;;;;;;38.78;16.17;;;;;;;;;;5031719;28;20378;-66
2021/11/08 06:56:05;;;;;;;36.92;17.15;;;;;;;;;;5014012;28;20160;-66
2021/11/08 06:58:31;;;;;;;40.50;15.95;;;;;;;;;;5045745;28;20093;-66
2021/11/08 07:00:58;;;;;;;49.22;20.80;;;;;;;;;;5052112;28;20021;-66
2021/11/08 07:03:24;;;;;;;41.70;18.38;;;;;;;;;;5051460;28;20166;-65
2021/11/08 07:05:50;;;;;;;41.65;17.23;;;;;;;;;;5051633;28;20028;-66
2021/11/08 07:08:16;;;;;;;35.88;17.17;;;;;;;;;;5033472;28;20060;-65
2021/11/08 07:10:43;;;;;;;42.53;17.20;;;;;;;;;;5051790;28;20028;-65
2021/11/08 07:13:09;;;;;;;45.90;20.15;;;;;;;;;;5051193;28;20104;-65
2021/11/08 07:15:35;;;;;;;42.47;17.98;;;;;;;;;;5051805;28;20228;-66
2021/11/08 07:18:01;;;;;;;36.47;18.52;;;;;;;;;;5033940;28;20025;-65
2021/11/08 07:20:28;;;;;;;37.35;17.15;;;;;;;;;;5050984;28;20041;-63
2021/11/08 07:22:54;;;;;;;42.90;20.70;;;;;;;;;;5048965;28;20431;-64
2021/11/08 07:25:21;;;;;;;36.17;17.70;;;;;;;;;;5032928;28;20021;-65
2021/11/08 07:27:47;;;;;;;40.13;17.95;;;;;;;;;;5051107;28;20021;-66
2021/11/08 07:30:14;;;;;;;40.78;18.05;;;;;;;;;;5051015;28;20017;-66
2021/11/08 07:32:41;;;;;;;37.45;18.35;;;;;;;;;;5033190;28;20370;-68
2021/11/08 07:35:08;;;;;;;45.85;19.83;;;;;;;;;;5033174;28;20029;-68
2021/11/08 07:37:34;;;;;;;37.50;16.25;;;;;;;;;;5051060;28;20106;-68
2021/11/08 07:40:00;;;;;;;40.78;16.45;;;;;;;;;;5051126;28;20029;-68
2021/11/08 07:42:26;;;;;;;42.28;18.60;;;;;;;;;;5051169;28;20370;-68
2021/11/08 07:44:52;;;;;;;35.10;15.77;;;;;;;;;;5051831;28;20485;-68
2021/11/08 07:47:18;;;;;;;38.45;17.10;;;;;;;;;;5050921;28;20036;-68
2021/11/08 07:49:44;;;;;;;38.63;18.05;;;;;;;;;;5051335;28;20025;-67
2021/11/08 07:52:10;;;;;;;38.85;18.70;;;;;;;;;;5050560;28;20036;-66
2021/11/08 07:54:37;;;;;;;51.45;16.33;;;;;;;;;;5050867;28;20035;-66
2021/11/08 07:57:03;;;;;;;36.28;16.85;;;;;;;;;;5050670;28;20044;-67
2021/11/08 07:59:29;;;;;;;42.90;18.05;;;;;;;;;;5033360;28;20025;-67
2021/11/08 08:01:55;;;;;;;47.28;18.85;;;;;;;;;;5050253;28;20376;-66
2021/11/08 08:04:22;;;;;;;39.03;17.33;;;;;;;;;;5050565;28;20032;-67
2021/11/08 08:06:51;;;;;;;34.92;15.40;;;;;;;;;;5032781;28;20035;-69
2021/11/08 08:09:18;;;;;;;34.97;16.33;;;;;;;;;;5050844;28;20028;-69
2021/11/08 08:11:45;;;;;;;36.40;15.15;;;;;;;;;;5050647;28;20327;-68
2021/11/08 08:14:10;;;;;;;37.88;15.80;;;;;;;;;;5050480;28;20095;-68
2021/11/08 08:16:37;;;;;;;32.03;14.38;;;;;;;;;;5050633;28;20460;-69
2021/11/08 08:19:03;;;;;;;33.55;14.80;;;;;;;;;;5050645;28;20100;-68
2021/11/08 08:21:29;;;;;;;36.35;16.48;;;;;;;;;;5031649;28;20028;-69
2021/11/08 08:23:56;;;;;;;37.95;13.30;;;;;;;;;;5031610;28;20063;-67
2021/11/08 08:26:27;;;;;;;43.05;15.57;;;;;;;;;;5032214;28;20071;-66
2021/11/08 08:28:53;;;;;;;34.83;15.32;;;;;;;;;;5050394;28;20469;-67
2021/11/08 08:31:19;;;;;;;44.60;15.68;;;;;;;;;;5050109;28;20025;-68
2021/11/08 08:33:45;;;;;;;35.28;14.80;;;;;;;;;;5050097;28;20031;-68
2021/11/08 08:36:11;;;;;;;30.35;12.63;;;;;;;;;;5050128;28;20032;-67
2021/11/08 08:38:38;;;;;;;32.70;14.52;;;;;;;;;;5032032;28;20029;-67
2021/11/08 08:41:05;;;;;;;32.42;14.55;;;;;;;;;;5050046;28;20063;-67
2021/11/08 08:43:31;;;;;;;32.78;13.88;;;;;;;;;;5049486;28;20032;-67
2021/11/08 08:45:57;;;;;;;30.17;13.45;;;;;;;;;;5050183;28;20020;-66
2021/11/08 08:48:24;;;;;;;47.15;14.32;;;;;;;;;;5049904;28;20037;-66
2021/11/08 08:50:50;;;;;;;30.45;12.88;;;;;;;;;;5049772;28;20025;-66
2021/11/08 08:53:16;;;;;;;29.48;12.85;;;;;;;;;;5031252;28;20102;-66
2021/11/08 08:55:44;;;;;;;26.10;11.80;;;;;;;;;;5049720;28;20112;-67
2021/11/08 08:58:11;;;;;;;25.60;11.90;;;;;;;;;;5032124;28;20025;-66
2021/11/08 09:00:38;;;;;;;28.95;11.73;;;;;;;;;;5049901;28;20062;-68
2021/11/08 09:03:06;;;;;;;32.47;13.57;;;;;;;;;;5049683;28;20454;-68
2021/11/08 09:05:32;;;;;;;32.30;13.73;;;;;;;;;;5032019;28;20029;-68
2021/11/08 09:07:58;;;;;;;28.02;11.90;;;;;;;;;;5050062;28;20060;-68
2021/11/08 09:10:26;;;;;;;30.73;13.05;;;;;;;;;;5050195;28;20035;-67
2021/11/08 09:12:52;;;;;;;30.37;11.57;;;;;;;;;;5050151;28;20033;-67
2021/11/08 09:15:18;;;;;;;28.50;12.57;;;;;;;;;;5032557;28;20531;-68
2021/11/08 09:17:45;;;;;;;27.60;12.23;;;;;;;;;;5049931;28;20120;-68
2021/11/08 09:20:11;;;;;;;25.67;10.75;;;;;;;;;;5049557;28;20033;-67
2021/11/08 09:22:42;;;;;;;30.40;10.88;;;;;;;;;;5049812;28;20394;-67
2021/11/08 09:25:08;;;;;;;28.52;11.95;;;;;;;;;;5049680;28;20021;-68
2021/11/08 09:27:34;;;;;;;26.00;9.90;;;;;;;;;;5049530;28;20104;-67
2021/11/08 09:30:00;;;;;;;31.60;11.65;;;;;;;;;;5049935;28;20453;-67
2021/11/08 09:32:29;;;;;;;27.40;10.32;;;;;;;;;;5052414;28;20028;-67
2021/11/08 09:34:55;;;;;;;29.88;9.90;;;;;;;;;;5053724;28;20164;-67
2021/11/08 09:37:23;;;;;;;25.20;9.38;;;;;;;;;;5052759;28;20037;-67
2021/11/08 09:39:50;;;;;;;25.35;9.90;;;;;;;;;;5035119;28;20116;-67
2021/11/08 09:42:17;;;;;;;29.73;9.85;;;;;;;;;;5035564;28;20435;-67
2021/11/08 09:44:43;;;;;;;31.90;11.60;;;;;;;;;;5053274;28;20096;-67
2021/11/08 09:47:10;;;;;;;27.42;10.77;;;;;;;;;;5053579;28;20392;-67
2021/11/08 09:49:39;;;;;;;27.13;10.23;;;;;;;;;;5035248;28;20096;-67
2021/11/08 09:52:05;;;;;;;27.85;11.65;;;;;;;;;;5035406;28;20060;-67
2021/11/08 09:54:37;;;;;;;27.52;12.02;;;;;;;;;;5053023;28;20029;-67
2021/11/08 09:57:03;;;;;;;25.10;9.30;;;;;;;;;;5035437;28;20025;-67
2021/11/08 09:59:33;;;;;;;25.00;11.10;;;;;;;;;;5053291;28;20060;-67
2021/11/08 10:02:00;;;;;;;26.90;10.43;;;;;;;;;;5053037;28;20082;-67
2021/11/08 10:04:26;;;;;;;28.40;10.45;;;;;;;;;;5052843;28;20025;-67
2021/11/08 10:06:52;;;;;;;30.17;10.20;;;;;;;;;;5051681;28;20477;-66
2021/11/08 10:09:22;;;;;;;29.33;10.73;;;;;;;;;;5051976;28;20033;-66
2021/11/08 10:11:49;;;;;;;25.25;10.73;;;;;;;;;;5049787;28;20507;-67
2021/11/08 10:14:16;;;;;;;23.63;9.95;;;;;;;;;;5034593;28;20051;-66
2021/11/08 10:16:43;;;;;;;26.05;9.90;;;;;;;;;;5052672;28;20075;-67
2021/11/08 10:19:10;;;;;;;26.00;10.52;;;;;;;;;;5052850;28;20147;-67
2021/11/08 10:21:40;;;;;;;30.27;9.90;;;;;;;;;;5052130;28;20029;-67
2021/11/08 10:24:07;;;;;;;26.88;9.30;;;;;;;;;;5033064;28;20037;-67
2021/11/08 10:26:36;;;;;;;27.90;9.50;;;;;;;;;;5052041;28;20024;-67
2021/11/08 10:29:02;;;;;;;;;;;;;;;;;;5052773;28;20033;-67
2021/11/08 10:31:30;;;;;;;28.05;9.85;;;;;;;;;;5052425;28;19912;-68
2021/11/08 10:33:57;;;;;;;25.23;9.77;;;;;;;;;;5052042;28;20119;-67
2021/11/08 10:36:23;;;;;;;27.35;10.27;;;;;;;;;;5052525;28;20082;-67
2021/11/08 10:38:51;;;;;;;25.92;9.80;;;;;;;;;;5052086;28;20059;-67
2021/11/08 10:41:18;;;;;;;26.70;9.40;;;;;;;;;;5034495;28;20036;-66
2021/11/08 10:43:46;;;;;;;23.83;10.30;;;;;;;;;;5033248;28;20029;-67
2021/11/08 10:46:17;;;;;;;28.27;10.63;;;;;;;;;;5034273;28;20028;-67
2021/11/08 10:48:46;;;;;;;27.40;11.50;;;;;;;;;;5033437;28;20063;-67
2021/11/08 10:51:14;;;;;;;25.70;10.23;;;;;;;;;;5034204;28;20489;-67
2021/11/08 10:53:51;;;;;;;24.40;10.50;;;;;;;;;;5052168;28;20558;-67
2021/11/08 10:56:37;;;;;;;27.23;10.65;;;;;;;;;;5052317;28;20029;-66
2021/11/08 10:59:08;;;;;;;27.60;8.88;;;;;;;;;;5051809;28;20437;-67
2021/11/08 11:01:43;;;;;;;30.02;10.57;;;;;;;;;;5052882;28;20446;-67
2021/11/08 11:04:10;;;;;;;24.52;9.43;;;;;;;;;;5052176;28;20083;-67
2021/11/08 11:06:38;;;;;;;25.42;9.32;;;;;;;;;;5034271;28;20021;-67
2021/11/08 11:09:30;;;;;;;29.25;9.52;;;;;;;;;;5052073;28;20028;-67
2021/11/08 11:12:07;;;;;;;26.70;9.00;;;;;;;;;;5047358;28;20412;-67
2021/11/08 11:14:37;;;;;;;25.20;9.18;;;;;;;;;;5051293;28;20400;-67
2021/11/08 11:17:13;;;;;;;21.85;8.55;;;;;;;;;;5031764;28;20048;-67
2021/11/08 11:19:41;;;;;;;26.52;9.02;;;;;;;;;;5031327;28;20025;-67
2021/11/08 11:22:10;;;;;;;22.10;10.27;;;;;;;;;;5031061;28;20026;-67
2021/11/08 11:24:50;;;;;;;27.63;10.18;;;;;;;;;;5029153;28;20119;-67
2021/11/08 11:27:29;;;;;;;21.13;9.70;;;;;;;;;;5050946;28;20060;-67
2021/11/08 11:30:08;;;;;;;22.67;11.02;;;;;;;;;;5051277;28;20021;-67
2021/11/08 11:32:34;;;;;;;23.33;12.13;;;;;;;;;;5051046;28;20021;-67
2021/11/08 11:35:00;;;;;;;26.80;12.07;;;;;;;;;;5032730;28;20033;-65
2021/11/08 11:37:27;;;;;;;21.30;12.07;;;;;;;;;;5050879;28;20025;-67
2021/11/08 11:40:13;;;;;;;27.70;12.38;;;;;;;;;;5033183;28;20025;-67
2021/11/08 11:43:05;;;;;;;27.08;11.32;;;;;;;;;;5050945;28;20081;-67
2021/11/08 11:45:44;;;;;;;22.90;11.05;;;;;;;;;;5046280;28;20056;-67
2021/11/08 11:48:10;;;;;;;23.98;10.73;;;;;;;;;;5050897;28;20263;-67
2021/11/08 11:50:36;;;;;;;21.98;11.18;;;;;;;;;;5032737;28;20135;-67
2021/11/08 11:53:03;;;;;;;22.48;11.20;;;;;;;;;;5041306;23;20049;-69
2021/11/08 11:55:30;;;;;;;21.77;11.00;;;;;;;;;;5031309;28;20025;-68
2021/11/08 11:57:57;;;;;;;20.83;11.20;;;;;;;;;;5031772;28;20029;-68
2021/11/08 12:00:26;;;;;;;24.83;11.82;;;;;;;;;;5030486;28;20026;-69
2021/11/08 12:02:53;;;;;;;23.38;12.60;;;;;;;;;;5031574;28;20123;-69
2021/11/08 12:05:19;;;;;;;19.65;11.25;;;;;;;;;;5013892;28;20033;-69
2021/11/08 12:07:49;;;;;;;30.45;11.30;;;;;;;;;;5031558;28;20400;-68
2021/11/08 12:10:16;;;;;;;21.90;10.90;;;;;;;;;;5014359;28;20390;-69
2021/11/08 12:12:41;;;;;;;26.35;11.48;;;;;;;;;;5031412;28;20075;-68
2021/11/08 12:15:08;;;;;;;23.45;10.90;;;;;;;;;;5031111;28;20029;-70
2021/11/08 12:17:41;;;;;;;24.38;10.80;;;;;;;;;;5032095;28;20025;-68
2021/11/08 12:20:27;;;;;;;27.10;11.73;;;;;;;;;;5017095;28;20029;-70
2021/11/08 12:22:53;;;;;;;26.25;11.70;;;;;;;;;;5031743;28;20091;-71
2021/11/08 12:25:22;;;;;;;22.33;12.00;;;;;;;;;;5031285;28;20103;-70
2021/11/08 12:27:50;;;;;;;23.35;12.05;;;;;;;;;;5031776;28;20032;-69
2021/11/08 12:30:18;;;;;;;24.02;12.13;;;;;;;;;;5031345;28;20029;-68
2021/11/08 12:32:58;;;;;;;24.25;12.45;;;;;;;;;;5030992;28;20482;-67
2021/11/08 12:35:31;;;;;;;26.20;12.32;;;;;;;;;;5030991;28;20401;-68
2021/11/08 12:37:57;;;;;;;21.15;10.98;;;;;;;;;;5013830;28;20028;-69
2021/11/08 12:40:28;;;;;;;23.80;11.68;;;;;;;;;;5031486;28;20026;-68
2021/11/08 12:42:55;;;;;;;26.70;13.43;;;;;;;;;;5031194;28;20025;-69
2021/11/08 12:45:26;;;;;;;23.88;11.95;;;;;;;;;;5030844;28;20084;-69
2021/11/08 12:48:18;;;;;;;24.92;12.02;;;;;;;;;;5013457;28;20021;-69
2021/11/08 12:50:46;;;;;;;23.58;12.45;;;;;;;;;;5026553;28;20048;-70
2021/11/08 12:53:23;;;;;;;25.20;12.20;;;;;;;;;;5030406;28;20029;-69
2021/11/08 12:55:49;;;;;;;26.23;12.88;;;;;;;;;;5031065;28;20032;-69
2021/11/08 12:58:15;;;;;;;25.88;12.05;;;;;;;;;;5031066;28;20072;-68
2021/11/08 13:00:43;;;;;;;23.98;11.52;;;;;;;;;;5030918;28;20029;-68
2021/11/08 13:03:15;;;;;;;25.90;12.65;;;;;;;;;;5030581;28;20021;-69
2021/11/08 13:05:45;;;;;;;22.55;11.45;;;;;;;;;;5030888;28;20151;-68
2021/11/08 13:08:21;;;;;;;24.45;11.70;;;;;;;;;;5035361;28;20493;-70
2021/11/08 13:11:11;;;;;;;22.38;11.82;;;;;;;;;;5035197;28;20355;-69
2021/11/08 13:13:57;;;;;;;22.80;10.80;;;;;;;;;;5035015;28;20518;-69
2021/11/08 13:16:34;;;;;;;28.17;11.68;;;;;;;;;;5017148;28;20056;-72
2021/11/08 13:19:07;;;;;;;21.52;10.50;;;;;;;;;;5017147;28;20481;-69
2021/11/08 13:21:34;;;;;;;24.77;12.10;;;;;;;;;;5034568;28;20104;-69
2021/11/08 13:24:00;;;;;;;23.20;11.75;;;;;;;;;;5016454;28;20060;-69
2021/11/08 13:26:27;;;;;;;24.05;10.82;;;;;;;;;;5017249;28;20033;-69
2021/11/08 13:28:53;;;;;;;25.30;10.35;;;;;;;;;;5035058;28;20462;-69
2021/11/08 13:31:19;;;;;;;24.02;10.98;;;;;;;;;;5034855;28;20057;-68
2021/11/08 13:33:47;;;;;;;25.38;11.88;;;;;;;;;;5034407;28;20065;-69
2021/11/08 13:36:14;;;;;;;25.02;12.48;;;;;;;;;;5016965;28;20073;-69
2021/11/08 13:38:50;;;;;;;22.10;11.00;;;;;;;;;;5034505;28;20032;-69
2021/11/08 13:41:42;;;;;;;23.02;12.02;;;;;;;;;;5028841;28;20072;-70
2021/11/08 13:44:12;;;;;;;25.83;11.98;;;;;;;;;;5031039;28;20124;-69
2021/11/08 13:46:39;;;;;;;25.45;11.82;;;;;;;;;;5016378;28;20026;-68
2021/11/08 13:49:07;;;;;;;24.25;11.85;;;;;;;;;;5033914;28;20017;-70
2021/11/08 13:51:33;;;;;;;23.63;11.63;;;;;;;;;;5033930;28;20032;-68
2021/11/08 13:54:00;;;;;;;23.33;12.57;;;;;;;;;;5034175;28;20075;-68
2021/11/08 13:56:31;;;;;;;28.65;11.77;;;;;;;;;;5033723;28;20018;-68
2021/11/08 13:58:57;;;;;;;22.67;10.20;;;;;;;;;;5033745;28;20041;-68
2021/11/08 14:01:28;;;;;;;23.30;10.27;;;;;;;;;;5033964;28;20097;-68
2021/11/08 14:03:54;;;;;;;23.05;9.93;;;;;;;;;;5033245;28;20030;-68
2021/11/08 14:06:28;;;;;;;27.73;10.52;;;;;;;;;;5033650;28;20212;-69
2021/11/08 14:08:54;;;;;;;22.95;9.50;;;;;;;;;;5015438;28;20036;-70
2021/11/08 14:11:31;;;;;;;24.85;10.90;;;;;;;;;;5033401;28;20026;-70
2021/11/08 14:14:01;;;;;;;24.42;10.95;;;;;;;;;;5033062;28;20021;-68
2021/11/08 14:16:27;;;;;;;25.95;10.00;;;;;;;;;;5015855;28;20026;-70
2021/11/08 14:18:54;;;;;;;38.72;11.93;;;;;;;;;;5032323;28;20107;-69
2021/11/08 14:21:21;;;;;;;27.23;9.93;;;;;;;;;;5033443;28;20588;-69
2021/11/08 14:23:47;;;;;;;35.55;13.15;;;;;;;;;;5033333;28;20029;-68
2021/11/08 14:26:13;;;;;;;26.52;10.27;;;;;;;;;;5033352;28;20026;-69
2021/11/08 14:28:39;;;;;;;26.33;10.25;;;;;;;;;;5032923;28;20032;-68
2021/11/08 14:31:16;;;;;;;28.27;9.85;;;;;;;;;;5014856;28;20083;-68
2021/11/08 14:33:42;;;;;;;23.48;9.95;;;;;;;;;;5033162;28;20112;-68
2021/11/08 14:36:18;;;;;;;24.55;8.75;;;;;;;;;;5033175;28;20057;-68
2021/11/08 14:38:58;;;;;;;22.00;9.73;;;;;;;;;;5032779;28;20032;-68
2021/11/08 14:41:32;;;;;;;22.58;8.93;;;;;;;;;;5014968;28;20057;-68
2021/11/08 14:43:58;;;;;;;24.67;9.65;;;;;;;;;;5032626;28;20508;-68
2021/11/08 14:46:34;;;;;;;19.48;8.95;;;;;;;;;;5014792;28;20128;-68
2021/11/08 14:49:07;;;;;;;20.50;8.45;;;;;;;;;;5032594;28;20410;-68
2021/11/08 14:51:33;;;;;;;20.20;9.00;;;;;;;;;;5014732;28;20465;-69
2021/11/08 14:54:02;;;;;;;24.27;9.68;;;;;;;;;;5032117;28;20123;-69
2021/11/08 14:56:31;;;;;;;24.77;8.43;;;;;;;;;;5033223;28;20021;-69
2021/11/08 14:58:59;;;;;;;21.55;8.13;;;;;;;;;;5014409;28;20124;-67
2021/11/08 15:01:28;;;;;;;21.50;8.93;;;;;;;;;;5031977;28;20030;-68
2021/11/08 15:04:04;;;;;;;23.17;8.00;;;;;;;;;;5031851;28;20095;-69
2021/11/08 15:06:32;;;;;;;22.38;8.77;;;;;;;;;;5031905;28;20026;-66
2021/11/08 15:09:14;;;;;;;23.75;8.65;;;;;;;;;;5014441;28;20365;-68
2021/11/08 15:11:41;;;;;;;22.33;8.50;;;;;;;;;;5014119;28;20076;-68
2021/11/08 15:14:12;;;;;;;23.73;9.32;;;;;;;;;;5013280;28;20400;-68
2021/11/08 15:16:46;;;;;;;20.95;7.63;;;;;;;;;;5011502;28;20434;-69
2021/11/08 15:19:12;;;;;;;26.00;7.90;;;;;;;;;;5032629;28;20029;-68
2021/11/08 15:21:38;;;;;;;23.75;9.30;;;;;;;;;;5014306;28;20022;-68
2021/11/08 15:24:12;;;;;;;25.80;9.57;;;;;;;;;;5030635;28;20079;-68
2021/11/08 15:26:39;;;;;;;22.95;7.55;;;;;;;;;;5031388;28;20029;-67
2021/11/08 15:29:11;;;;;;;18.08;7.38;;;;;;;;;;5030692;28;20017;-70
2021/11/08 15:31:38;;;;;;;19.90;7.43;;;;;;;;;;5031080;28;20708;-70
2021/11/08 15:34:09;;;;;;;23.83;9.00;;;;;;;;;;5031363;28;20052;-68
2021/11/08 15:36:39;;;;;;;25.23;9.65;;;;;;;;;;5031805;28;20032;-69
2021/11/08 15:39:09;;;;;;;20.05;7.55;;;;;;;;;;5031836;28;20029;-69
2021/11/08 15:41:36;;;;;;;22.90;7.60;;;;;;;;;;5031211;28;20022;-70
2021/11/08 15:44:02;;;;;;;25.33;8.48;;;;;;;;;;5031574;28;20060;-69
2021/11/08 15:46:28;;;;;;;32.47;9.43;;;;;;;;;;5032005;28;20033;-70
2021/11/08 15:48:54;;;;;;;21.52;7.57;;;;;;;;;;5032079;28;20485;-69
2021/11/08 15:51:22;;;;;;;23.40;7.78;;;;;;;;;;5014118;28;20418;-69
2021/11/08 15:53:48;;;;;;;19.67;7.37;;;;;;;;;;5013944;28;20033;-70
2021/11/08 15:56:14;;;;;;;22.85;8.07;;;;;;;;;;5031953;28;20034;-67
2021/11/08 15:58:40;;;;;;;23.08;7.00;;;;;;;;;;5030859;28;20026;-67
2021/11/08 16:01:07;;;;;;;19.73;7.18;;;;;;;;;;5012755;28;20029;-69
2021/11/08 16:03:34;;;;;;;26.40;7.72;;;;;;;;;;5030356;28;20065;-68
2021/11/08 16:06:00;;;;;;;30.17;10.27;;;;;;;;;;5029864;28;20039;-68
2021/11/08 16:08:26;;;;;;;25.02;7.97;;;;;;;;;;5030203;28;20022;-70
2021/11/08 16:10:52;;;;;;;25.67;8.18;;;;;;;;;;5031339;28;20519;-69
2021/11/08 16:13:18;;;;;;;22.35;7.25;;;;;;;;;;5012114;28;20071;-70
2021/11/08 16:15:44;;;;;;;31.23;8.18;;;;;;;;;;4680338;28;10000089;-70
2021/11/08 16:18:11;;;;;;;22.65;8.18;;;;;;;;;;5011125;28;20040;-68
2021/11/08 16:20:38;;;;;;;19.83;6.68;;;;;;;;;;5010809;28;20176;-69
2021/11/08 16:23:05;;;;;;;25.17;8.35;;;;;;;;;;5028211;28;20106;-69
2021/11/08 16:25:31;;;;;;;24.75;7.82;;;;;;;;;;5028273;28;20040;-68
2021/11/08 16:27:57;;;;;;;20.73;7.20;;;;;;;;;;5010057;28;20084;-68
2021/11/08 16:30:23;;;;;;;22.45;7.10;;;;;;;;;;5028504;28;20377;-68
2021/11/08 16:33:09;;;;;;;19.35;7.30;;;;;;;;;;5028262;28;20181;-70
2021/11/08 16:35:41;;;;;;;22.52;7.63;;;;;;;;;;4988240;28;20071;-68
2021/11/08 16:38:11;;;;;;;31.95;9.45;;;;;;;;;;5029334;28;20069;-68
2021/11/08 16:40:38;;;;;;;26.08;8.15;;;;;;;;;;5010736;28;20511;-68